Flight Track Log - Related Links

Times and Time Zones

All times are in EDT time to prevent confusion due to time zone crossing. See the ASQ4921 flight status page for this flight to view local times or setup timezone preferences in your user account.

Time Position Orientation Groundspeed Altitude Reporting Facility
EDT Latitude Longitude Course Direction KTS MPH feet Rate Location/Type
Sat 04:36:19 PM 42.3667 -70.9667 90° East 162 186 800  Level KA90
Sat 04:36:38 PM 42.3667 -70.9500 90° East 149 171 1,400 1,671 Climbing KA90
Sat 04:37:38 PM 42.3833 -70.8833 71° East 254 292 3,000 2,450 Climbing KA90
Sat 04:38:38 PM 42.3833 -70.7833 90° East 262 302 6,300 2,840 Climbing KA90
Sat 04:40:08 PM 42.3161 -70.6972 137° Southeast 282 325 10,100 2,200 Climbing Boston Center
Sat 04:41:08 PM 42.2314 -70.6753 169° South 330 380 11,800 2,081 Climbing Boston Center
Sat 04:42:12 PM 42.1153 -70.7108 193° South 362 417 14,400 2,371 Climbing Boston Center
Sat 04:43:12 PM 42.0153 -70.7422 193° South 368 423 16,700 1,850 Climbing Boston Center
Sat 04:44:12 PM 41.9083 -70.7744 193° South 392 451 18,100 1,548 Climbing Boston Center
Sat 04:45:16 PM 41.7956 -70.8081 193° South 411 473 19,900 1,824 Climbing Boston Center
Sat 04:46:17 PM 41.6881 -70.8689 203° Southwest 425 489 21,900 1,869 Climbing Boston Center
Sat 04:47:18 PM 41.5956 -70.9622 217° Southwest 424 488 23,700 1,623 Climbing Boston Center
Sat 04:48:19 PM 41.5292 -71.0864 234° Southwest 419 482 25,200 1,584 Climbing Boston Center
Sat 04:49:23 PM 41.4419 -71.2422 233° Southwest 429 494 27,000 1,536 Climbing Boston Center
Sat 04:50:24 PM 41.3692 -71.3736 234° Southwest 437 503 28,400 1,289 Climbing Boston Center
Sat 04:51:24 PM 41.2956 -71.5069 234° Southwest 446 513 29,600 1,438 Climbing Boston Center
Sat 04:52:25 PM 41.2217 -71.6406 234° Southwest 447 514 31,300 1,452 Climbing Boston Center
Sat 04:53:28 PM 41.1367 -71.7586 226° Southwest 447 514 32,600 1,113 Climbing Boston Center
Sat 04:54:29 PM 41.0447 -71.8736 223° Southwest 449 517 33,600 689 Climbing Boston Center
Sat 04:55:30 PM 40.9489 -71.9975 224° Southwest 455 524 34,000 197 Climbing Boston Center
Sat 04:56:31 PM 40.8536 -72.1181 224° Southwest 470 541 34,000  Level Boston Center
Sat 04:57:32 PM 40.7589 -72.2383 224° Southwest 472 543 34,000  Level Boston Center
Sat 04:58:36 PM 40.6664 -72.3536 223° Southwest 472 543 34,000  Level Boston Center
Sat 04:59:37 PM 40.5533 -72.4967 224° Southwest 472 543 34,000 -197 Level Boston Center
Sat 05:00:38 PM 40.4583 -72.6147 223° Southwest 472 543 33,600 -1,537 Descending Boston Center
Sat 05:01:38 PM 40.3642 -72.7317 223° Southwest 471 542 30,900 -2,380 Descending Boston Center
Sat 05:02:39 PM 40.2719 -72.8450 223° Southwest 459 528 28,800 -1,392 Descending Boston Center
Sat 05:03:43 PM 40.1778 -72.9633 224° Southwest 454 522 28,000 -384 Descending Boston Center
Sat 05:04:44 PM 40.0847 -73.0753 223° Southwest 454 522 28,000  Level Boston Center
Sat 05:05:45 PM 39.9950 -73.1850 223° Southwest 450 518 28,000  Level Boston Center
Sat 05:06:46 PM 39.9050 -73.2961 223° Southwest 444 511 28,000  Level Boston Center
Sat 05:07:46 PM 39.8008 -73.4228 223° Southwest 444 511 28,000  Level Boston Center
Sat 05:08:48 PM 39.7097 -73.5319 223° Southwest 444 511 28,000  Level Boston Center
Sat 05:09:53 PM 39.6208 -73.6419 224° Southwest 445 512 28,000  Level Washington Center
Sat 05:10:53 PM 39.5289 -73.7503 222° Southwest 445 512 28,000  Level Washington Center
Sat 05:11:57 PM 39.4375 -73.8594 223° Southwest 445 512 28,000  Level Washington Center
Sat 05:12:58 PM 39.3464 -73.9678 223° Southwest 446 513 28,000  Level Washington Center
Sat 05:14:02 PM 39.2547 -74.0769 223° Southwest 446 513 28,000  Level Washington Center
Sat 05:15:04 PM 39.1442 -74.2069 222° Southwest 447 514 28,000  Level Washington Center
Sat 05:16:04 PM 39.0528 -74.3142 222° Southwest 446 513 28,000  Level Washington Center
Sat 05:17:08 PM 38.9603 -74.4217 222° Southwest 446 513 28,000  Level Washington Center
Sat 05:18:09 PM 38.8678 -74.5317 223° Southwest 448 516 28,000  Level Washington Center
Sat 05:19:13 PM 38.7753 -74.6350 221° Southwest 447 514 28,000  Level Washington Center
Sat 05:20:13 PM 38.6747 -74.7322 217° Southwest 449 517 28,000  Level Washington Center
Sat 05:21:18 PM 38.5542 -74.8472 217° Southwest 449 517 28,000  Level Washington Center
Sat 05:22:19 PM 38.4556 -74.9447 218° Southwest 450 518 28,000  Level Washington Center
Sat 05:23:20 PM 38.3561 -75.0394 217° Southwest 451 519 28,000  Level Washington Center
Sat 05:24:24 PM 38.2539 -75.1381 217° Southwest 450 518 28,000  Level Washington Center
Sat 05:25:24 PM 38.1550 -75.2342 217° Southwest 450 518 28,000  Level Washington Center
Sat 05:26:28 PM 38.0550 -75.3306 217° Southwest 450 518 28,000 -624 Level Washington Center
Sat 05:27:29 PM 37.9344 -75.4419 216° Southwest 450 518 26,700 -1,648 Descending Washington Center
Sat 05:27:59 PM 37.8856 -75.4922 219° Southwest 454 522 25,500 -2,344 Descending Washington Center
Sat 05:28:33 PM 37.8356 -75.5400 217° Southwest 450 518 24,200 -2,563 Descending Washington Center
Sat 05:29:42 PM 37.7158 -75.6531 217° Southwest 428 493 21,100 -2,419 Descending Washington Center
Sat 05:30:37 PM 37.6461 -75.7189 217° Southwest 423 487 19,200 -2,139 Descending Washington Center
Sat 05:31:37 PM 37.5561 -75.8031 217° Southwest 409 471 17,000 -2,203 Descending Washington Center
Sat 05:32:45 PM 37.5044 -75.9611 248° West 387 445 14,500 -1,824 Descending Washington Center
Sat 05:33:42 PM 37.4878 -76.0772 260° West 384 442 13,200 -1,100 Descending Washington Center
Sat 05:34:45 PM 37.4686 -76.2100 260° West 381 438 12,300 -774 Descending Washington Center
Sat 05:35:46 PM 37.4500 -76.3331 259° West 368 423 11,600 -762 Descending Washington Center
Sat 05:36:51 PM 37.4308 -76.4539 259° West 360 414 10,700 -720 Descending Washington Center
Sat 05:37:51 PM 37.4111 -76.5875 260° West 326 375 10,100 -774 Descending Washington Center
Sat 05:38:55 PM 37.3958 -76.6867 259° West 296 341 9,100 -1,008 Descending Washington Center
Sat 05:39:56 PM 37.3811 -76.7861 259° West 294 338 8,000 -1,131 Descending Washington Center
Sat 05:40:57 PM 37.4131 -76.8717 295° West 287 330 6,800 -1,200 Descending Washington Center
Sat 05:42:01 PM 37.4511 -76.9556 300° West 279 321 5,500 -1,488 Descending Washington Center
Sat 05:43:02 PM 37.4972 -77.0558 300° West 277 319 3,700 -1,161 Descending Washington Center
Sat 05:44:05 PM 37.5331 -77.1275 302° West 268 308 3,100 -624 Descending Washington Center
Sat 05:45:07 PM 37.5667 -77.1919 303° West 232 267 2,400 -480 Descending Washington Center
Sat 05:46:10 PM 37.5833 -77.2722 285° West 206 237 2,100 -576 Descending Washington Center
Sat 05:47:12 PM 37.5583 -77.3114 231° Southwest 180 207 1,200 -836 Descending Washington Center
Sat 05:48:12 PM 37.5228 -77.3236 195° South 150 173 400 -800 Descending Washington Center
Sat 05:50:00 PM 37.5052 -77.3197 170° South  Level Estimated
Sat 05:57:00 PM 37.5052 -77.3197 North  Level Estimated

Login

Don't have an account? Register now (free) for customized features, flight alerts, and more!